Hyundai Republic — A8IL3 — position and weather

sailwx.info

Track history (hours):
 
Tides and Currents Weather Stations Pressure Air Temp Water Temp Dewpoint Dewpoint Depression Visibility Wind Speed Wind Dir Waves Ship Positions

Hyundai Republic

Last reported at 2015-Jan-18 12:33 UTC. Time now 2015-Jan-25 12:23 UTC.
Position S 34°08' E 018°15'.

Length 305 m.

Type: Ship (hazmat cat A). MMSI: 636090994.

Date/timePositionNaut miles runAvg speedWind from/ knotsBaromVisibWave heightAir tempDewpointWater temp
2015-Jan-18 12:33S 34°08' E 018°15'447 9.2
2015-Jan-16 12:03S 33°51' E 027°14'  
2015-Jan-12 07:20S 20°08' E 057°17'2 2.3
2015-Jan-12 06:32S 20°09' E 057°17'4 4.2
2015-Jan-12 05:33S 20°13' E 057°15'6 0.5
2015-Jan-11 18:33S 20°08' E 057°15'9 0.3
2015-Jan-10 10:06S 20°02' E 057°22'610.8
2015-Jan-10 09:32S 20°07' E 057°19'4 2.9
2015-Jan-10 08:20S 20°10' E 057°18'0 0.3
2015-Jan-10 07:29S 20°10' E 057°18'1 0.7
2015-Jan-10 06:05S 20°10' E 057°19'0 0.7
2015-Jan-10 05:31S 20°10' E 057°20'1 0.8
2015-Jan-10 04:32S 20°09' E 057°20'1 0.5
2015-Jan-10 03:31S 20°09' E 057°21'0 0.3
2015-Jan-10 02:31S 20°09' E 057°21'0 0.3
2015-Jan-10 01:31S 20°09' E 057°21'0 0.3
2015-Jan-10 00:28S 20°09' E 057°22'0 0.5
2015-Jan-09 23:31S 20°08' E 057°22'0 0.4
2015-Jan-09 22:31S 20°08' E 057°22'1 0.7
2015-Jan-09 21:31S 20°08' E 057°22'1 0.7
2015-Jan-09 20:31S 20°07' E 057°23'1 0.7
2015-Jan-09 19:31S 20°07' E 057°23'1 0.9
2015-Jan-09 18:28S 20°06' E 057°24'6 0.6
2015-Jan-09 07:18S 19°60' E 057°25'7 8.9
2015-Jan-09 06:32S 19°56' E 057°31'  
Track history (hours):
 
Tides and Currents Weather Stations Pressure Air Temp Water Temp Dewpoint Dewpoint Depression Visibility Wind Speed Wind Dir Waves Ship Positions

Hyundai Republic

Last reported at 2015-Jan-18 12:33 UTC. Time now 2015-Jan-25 12:23 UTC.
Position S 34°08' E 018°15'.

Length 305 m.

Type: Ship (hazmat cat A). MMSI: 636090994.

Date/timePositionNaut miles runAvg speedWind from/ knotsBaromVisibWave heightAir tempDewpointWater temp
2015-Jan-18 12:33S 34°08' E 018°15'447 9.2
2015-Jan-16 12:03S 33°51' E 027°14'  
2015-Jan-12 07:20S 20°08' E 057°17'2 2.3
2015-Jan-12 06:32S 20°09' E 057°17'4 4.2
2015-Jan-12 05:33S 20°13' E 057°15'6 0.5
2015-Jan-11 18:33S 20°08' E 057°15'9 0.3
2015-Jan-10 10:06S 20°02' E 057°22'610.8
2015-Jan-10 09:32S 20°07' E 057°19'4 2.9
2015-Jan-10 08:20S 20°10' E 057°18'0 0.3
2015-Jan-10 07:29S 20°10' E 057°18'1 0.7
2015-Jan-10 06:05S 20°10' E 057°19'0 0.7
2015-Jan-10 05:31S 20°10' E 057°20'1 0.8
2015-Jan-10 04:32S 20°09' E 057°20'1 0.5
2015-Jan-10 03:31S 20°09' E 057°21'0 0.3
2015-Jan-10 02:31S 20°09' E 057°21'0 0.3
2015-Jan-10 01:31S 20°09' E 057°21'0 0.3
2015-Jan-10 00:28S 20°09' E 057°22'0 0.5
2015-Jan-09 23:31S 20°08' E 057°22'0 0.4
2015-Jan-09 22:31S 20°08' E 057°22'1 0.7
2015-Jan-09 21:31S 20°08' E 057°22'1 0.7
2015-Jan-09 20:31S 20°07' E 057°23'1 0.7
2015-Jan-09 19:31S 20°07' E 057°23'1 0.9
2015-Jan-09 18:28S 20°06' E 057°24'6 0.6
2015-Jan-09 07:18S 19°60' E 057°25'7 8.9
2015-Jan-09 06:32S 19°56' E 057°31'  

Dump ship's entire track history